createdAt,value
2023-05-10T00:00:44.601Z,28.80
2023-05-10T00:01:44.637Z,28.90
2023-05-10T00:02:44.665Z,29.03
2023-05-10T00:03:44.793Z,29.44
2023-05-10T00:04:44.630Z,28.16
2023-05-10T00:05:44.646Z,29.03
2023-05-10T00:06:44.649Z,25.71
2023-05-10T00:07:44.677Z,27.86
2023-05-10T00:08:44.682Z,25.40
2023-05-10T00:09:44.760Z,27.52
2023-05-10T00:10:44.834Z,25.49
2023-05-10T00:11:44.917Z,25.31
2023-05-10T00:12:45.026Z,25.38
2023-05-10T00:13:45.086Z,28.47
2023-05-10T00:14:45.135Z,26.27
2023-05-10T00:15:45.238Z,27.01
2023-05-10T00:16:45.358Z,27.28
2023-05-10T00:17:45.374Z,29.89
2023-05-10T00:18:45.443Z,27.02
2023-05-10T00:19:45.573Z,25.40
2023-05-10T00:20:45.568Z,28.37
2023-05-10T00:21:45.679Z,28.13
2023-05-10T00:22:45.729Z,30.96
2023-05-10T00:23:45.809Z,27.13
2023-05-10T00:24:45.887Z,29.03
2023-05-10T00:25:45.963Z,25.82
2023-05-10T00:26:46.038Z,27.71
2023-05-10T00:27:46.112Z,27.00
2023-05-10T00:28:46.215Z,26.58
2023-05-10T00:29:46.291Z,29.85
2023-05-10T00:30:46.343Z,30.43
2023-05-10T00:31:46.441Z,28.69
2023-05-10T00:32:46.549Z,27.99
2023-05-10T00:33:46.566Z,30.09
2023-05-10T00:34:46.648Z,25.36
2023-05-10T00:35:46.723Z,30.70
2023-05-10T00:36:46.797Z,29.20
2023-05-10T00:37:46.867Z,28.15
2023-05-10T00:38:46.976Z,29.30
2023-05-10T00:39:47.031Z,26.56
2023-05-10T00:40:47.106Z,28.94
2023-05-10T00:41:47.195Z,28.73
2023-05-10T00:42:47.267Z,27.61
2023-05-10T00:43:47.333Z,27.91
2023-05-10T00:44:47.415Z,27.79
2023-05-10T00:45:47.513Z,26.72
2023-05-10T00:46:47.561Z,26.57
2023-05-10T00:47:47.722Z,25.00
2023-05-10T00:48:47.732Z,27.10
2023-05-10T00:49:47.822Z,27.28
2023-05-10T00:50:47.899Z,28.92
2023-05-10T00:51:47.939Z,26.68
2023-05-10T00:52:48.017Z,29.55
2023-05-10T00:53:48.115Z,30.44
2023-05-10T00:54:48.179Z,27.94
2023-05-10T00:55:48.247Z,30.06
2023-05-10T00:56:48.333Z,25.00
2023-05-10T00:57:48.414Z,27.84
2023-05-10T00:58:48.497Z,33.60
2023-05-10T00:59:48.563Z,31.89
2023-05-10T01:00:48.644Z,32.72
2023-05-10T01:01:48.779Z,30.96
2023-05-10T01:02:48.898Z,29.46
2023-05-10T01:03:48.831Z,31.05
2023-05-10T01:04:48.956Z,32.19
2023-05-10T01:05:48.973Z,28.95
2023-05-10T01:06:49.016Z,31.25
2023-05-10T01:07:49.094Z,30.23
2023-05-10T01:08:49.146Z,28.65
2023-05-10T01:09:49.227Z,31.36
2023-05-10T01:10:49.237Z,31.46
2023-05-10T01:11:49.242Z,30.68
2023-05-10T01:12:49.348Z,31.98
2023-05-10T01:13:49.306Z,32.55
2023-05-10T01:14:49.273Z,32.56
2023-05-10T01:15:49.307Z,31.00
2023-05-10T01:16:49.308Z,32.12
2023-05-10T01:17:49.386Z,29.57
2023-05-10T01:18:49.400Z,29.90
2023-05-10T01:19:49.457Z,30.14
2023-05-10T01:20:49.531Z,28.47
2023-05-10T01:21:49.616Z,31.17
2023-05-10T01:22:49.697Z,29.45
2023-05-10T01:23:49.810Z,29.83
2023-05-10T01:24:49.853Z,30.06
2023-05-10T01:25:49.933Z,28.46
2023-05-10T01:26:50.016Z,29.98
2023-05-10T01:27:50.097Z,25.41
2023-05-10T01:28:50.177Z,28.65
2023-05-10T01:30:01.462Z,30.58
2023-05-10T01:30:51.260Z,30.78
2023-05-10T01:31:50.356Z,31.07
2023-05-10T01:32:50.318Z,30.93
2023-05-10T01:33:50.302Z,28.09
2023-05-10T01:34:50.289Z,30.99
2023-05-10T01:35:50.301Z,30.22
2023-05-10T01:36:50.332Z,31.07
2023-05-10T01:37:50.343Z,31.54
2023-05-10T01:38:50.421Z,26.58
2023-05-10T01:39:50.473Z,26.02
2023-05-10T01:40:50.563Z,26.47
2023-05-10T01:41:50.655Z,26.09
2023-05-10T01:42:50.718Z,31.59
2023-05-10T01:43:50.822Z,26.63
2023-05-10T01:44:50.878Z,29.96
2023-05-10T01:45:50.961Z,28.24
2023-05-10T01:46:51.067Z,27.39
2023-05-10T01:47:51.125Z,28.85
2023-05-10T01:48:51.176Z,28.04
2023-05-10T01:49:51.252Z,27.33
2023-05-10T01:50:51.332Z,30.08
2023-05-10T01:51:51.427Z,29.86
2023-05-10T01:52:51.505Z,30.36
2023-05-10T01:53:51.580Z,30.65
2023-05-10T01:54:51.656Z,30.64
2023-05-10T01:55:51.732Z,29.04
2023-05-10T01:56:51.809Z,27.88
2023-05-10T01:57:51.900Z,28.51
2023-05-10T01:58:51.978Z,30.28
2023-05-10T01:59:52.060Z,28.88
2023-05-10T02:00:52.148Z,28.12
2023-05-10T02:01:52.210Z,27.30
2023-05-10T02:02:52.291Z,29.72
2023-05-10T02:03:52.392Z,27.48
2023-05-10T02:04:52.440Z,28.87
2023-05-10T02:05:52.502Z,27.91
2023-05-10T02:06:52.600Z,29.44
2023-05-10T02:07:52.662Z,29.69
2023-05-10T02:08:52.733Z,27.84
2023-05-10T02:09:52.814Z,27.09
2023-05-10T02:10:52.893Z,26.59
2023-05-10T02:11:52.969Z,29.68
2023-05-10T02:12:53.093Z,29.86
2023-05-10T02:13:53.118Z,27.78
2023-05-10T02:14:53.207Z,28.64
2023-05-10T02:15:53.272Z,27.57
2023-05-10T02:16:53.366Z,29.12
2023-05-10T02:17:53.463Z,29.63
2023-05-10T02:18:53.485Z,28.05
2023-05-10T02:19:53.554Z,30.31
2023-05-10T02:20:53.602Z,28.96
2023-05-10T02:21:53.668Z,29.58
2023-05-10T02:22:53.716Z,27.35
2023-05-10T02:23:53.750Z,29.37
2023-05-10T02:24:53.819Z,26.80
2023-05-10T02:25:53.907Z,28.10
2023-05-10T02:26:53.975Z,29.96
2023-05-10T02:27:54.016Z,28.05
2023-05-10T02:28:54.091Z,27.91
2023-05-10T02:29:54.124Z,29.71
2023-05-10T02:30:54.167Z,27.85
2023-05-10T02:31:54.292Z,25.57
2023-05-10T02:32:54.392Z,29.05
2023-05-10T02:33:54.284Z,29.30
2023-05-10T02:34:54.296Z,29.32
2023-05-10T02:35:54.302Z,30.30
2023-05-10T02:36:54.302Z,29.88
2023-05-10T02:37:54.317Z,28.42
2023-05-10T02:38:54.349Z,31.01
2023-05-10T02:39:54.333Z,27.62
2023-05-10T02:40:54.336Z,27.57
2023-05-10T02:41:54.380Z,31.30
2023-05-10T02:42:54.440Z,26.68
2023-05-10T02:43:54.497Z,27.96
2023-05-10T02:44:54.567Z,27.42
2023-05-10T02:45:54.744Z,29.78
2023-05-10T02:46:54.688Z,25.00
2023-05-10T02:47:54.784Z,30.01
2023-05-10T02:48:54.836Z,26.05
2023-05-10T02:49:54.870Z,24.17
2023-05-10T02:50:54.944Z,24.84
2023-05-10T02:51:55.017Z,26.93
2023-05-10T02:52:55.075Z,25.89
2023-05-10T02:53:55.147Z,25.00
2023-05-10T02:54:55.193Z,27.08
2023-05-10T02:55:55.239Z,25.04
2023-05-10T02:56:55.275Z,26.16
2023-05-10T02:57:55.294Z,25.00
2023-05-10T02:58:55.336Z,25.62
2023-05-10T02:59:55.359Z,25.00
2023-05-10T03:00:55.390Z,25.84
2023-05-10T03:01:55.468Z,25.00
2023-05-10T03:02:55.443Z,25.88
2023-05-10T03:03:55.405Z,24.15
2023-05-10T03:04:55.508Z,27.23
2023-05-10T03:05:55.420Z,25.56
2023-05-10T03:06:55.431Z,25.04
2023-05-10T03:07:55.436Z,25.13
2023-05-10T03:08:55.440Z,21.90
2023-05-10T03:09:55.448Z,17.81
2023-05-10T03:10:55.455Z,13.87
2023-05-10T03:11:55.471Z,11.98
2023-05-10T03:12:55.494Z,26.98
2023-05-10T03:13:55.495Z,25.00
2023-05-10T03:14:55.522Z,25.32
2023-05-10T03:15:55.534Z,26.96
2023-05-10T03:16:55.489Z,27.27
2023-05-10T03:17:55.623Z,28.93
2023-05-10T03:18:55.525Z,25.89
2023-05-10T03:19:55.525Z,25.08
2023-05-10T03:20:55.530Z,25.34
2023-05-10T03:21:55.535Z,29.85
2023-05-10T03:22:55.551Z,25.00
2023-05-10T03:23:55.553Z,26.69
2023-05-10T03:24:55.550Z,24.97
2023-05-10T03:25:55.549Z,26.24
2023-05-10T03:26:55.568Z,30.93
2023-05-10T03:27:55.565Z,30.39
2023-05-10T03:28:55.592Z,28.25
2023-05-10T03:29:55.587Z,30.52
2023-05-10T03:30:55.598Z,25.48
2023-05-10T03:33:14.611Z,25.00
2023-05-10T03:34:14.601Z,25.00
2023-05-10T03:35:14.594Z,25.00
2023-05-10T03:36:14.601Z,25.00
2023-05-10T03:37:14.568Z,25.00
2023-05-10T03:38:14.579Z,28.33
2023-05-10T03:39:14.549Z,28.88
2023-05-10T03:40:14.621Z,25.60
2023-05-10T03:41:14.533Z,28.88
2023-05-10T03:42:14.509Z,27.25
2023-05-10T03:43:14.521Z,30.05
2023-05-10T03:44:14.487Z,27.61
2023-05-10T03:45:14.498Z,26.95
2023-05-10T03:46:14.509Z,27.84
2023-05-10T03:47:14.455Z,29.23
2023-05-10T03:48:14.492Z,32.35
2023-05-10T03:49:14.443Z,28.52
2023-05-10T03:50:14.484Z,28.43
2023-05-10T03:51:14.412Z,25.00
2023-05-10T03:52:14.384Z,28.38
2023-05-10T03:53:14.367Z,27.64
2023-05-10T03:54:14.368Z,25.58
2023-05-10T03:55:14.352Z,27.39
2023-05-10T03:56:14.345Z,30.08
2023-05-10T03:57:14.323Z,28.34
2023-05-10T03:58:14.303Z,28.81
2023-05-10T03:59:14.299Z,29.54
2023-05-10T04:00:14.441Z,33.82
2023-05-10T04:01:14.251Z,31.23
2023-05-10T04:02:14.277Z,35.49
2023-05-10T04:03:14.327Z,39.28
2023-05-10T04:04:14.223Z,36.93
2023-05-10T04:05:14.213Z,38.13
2023-05-10T04:06:14.248Z,43.12
2023-05-10T04:07:14.176Z,38.86
2023-05-10T04:08:14.159Z,42.77
2023-05-10T04:09:14.160Z,37.23
2023-05-10T04:10:14.339Z,38.82
2023-05-10T04:11:14.108Z,37.14
2023-05-10T04:12:14.081Z,40.26
2023-05-10T04:13:14.070Z,43.52
2023-05-10T04:14:14.058Z,43.63
2023-05-10T04:15:14.083Z,44.91
2023-05-10T04:16:14.155Z,41.12
2023-05-10T04:17:14.228Z,44.50
2023-05-10T04:18:14.191Z,43.23
2023-05-10T04:19:14.222Z,41.27
2023-05-10T04:20:14.358Z,41.05
2023-05-10T04:21:14.303Z,40.54
2023-05-10T04:22:14.339Z,44.70
2023-05-10T04:23:14.366Z,42.20
2023-05-10T04:24:14.459Z,43.64
2023-05-10T04:25:14.471Z,41.53
2023-05-10T04:26:14.473Z,48.14
2023-05-10T04:27:14.508Z,49.05
2023-05-10T04:28:14.555Z,52.95
2023-05-10T04:29:14.609Z,57.69
2023-05-10T04:30:14.761Z,58.05
2023-05-10T04:31:14.650Z,59.53
2023-05-10T04:32:14.552Z,61.51
2023-05-10T04:33:14.546Z,68.06
2023-05-10T04:34:14.538Z,79.17
2023-05-10T04:35:14.509Z,89.53
2023-05-10T04:36:14.501Z,96.13
2023-05-10T04:37:14.510Z,94.63
2023-05-10T04:38:14.493Z,100.57
2023-05-10T04:39:14.554Z,107.16
2023-05-10T04:40:14.736Z,115.45
2023-05-10T04:41:14.627Z,121.45
2023-05-10T04:42:14.668Z,123.94
2023-05-10T04:43:14.650Z,124.52
2023-05-10T04:44:14.631Z,126.29
2023-05-10T04:45:14.627Z,129.68
2023-05-10T04:46:14.655Z,136.78
2023-05-10T04:47:14.611Z,147.87
2023-05-10T04:48:14.576Z,147.31
2023-05-10T04:49:14.579Z,153.36
2023-05-10T04:50:14.717Z,157.76
2023-05-10T04:51:14.587Z,159.39
2023-05-10T04:52:14.608Z,161.24
2023-05-10T04:53:15.993Z,160.39
2023-05-10T04:54:14.689Z,160.03
2023-05-10T04:55:14.764Z,162.99
2023-05-10T04:56:14.798Z,158.88
2023-05-10T04:57:14.856Z,160.55
2023-05-10T04:58:14.914Z,163.44
2023-05-10T04:59:14.955Z,161.50
2023-05-10T05:00:15.280Z,158.83
2023-05-10T05:01:15.064Z,162.24
2023-05-10T05:02:15.077Z,163.74
2023-05-10T05:03:15.278Z,162.58
2023-05-10T05:04:15.189Z,162.47
2023-05-10T05:05:15.217Z,160.48
2023-05-10T05:06:15.247Z,155.28
2023-05-10T05:07:15.308Z,154.75
2023-05-10T05:08:15.335Z,139.73
2023-05-10T05:09:15.400Z,133.35
2023-05-10T05:10:15.580Z,124.18
2023-05-10T05:11:15.468Z,122.58
2023-05-10T05:12:15.520Z,121.74
2023-05-10T05:13:15.581Z,116.29
2023-05-10T05:14:15.616Z,117.39
2023-05-10T05:15:15.675Z,111.07
2023-05-10T05:16:15.783Z,108.20
2023-05-10T05:17:15.765Z,102.60
2023-05-10T05:18:15.797Z,107.09
2023-05-10T05:19:15.841Z,101.92
2023-05-10T05:20:16.010Z,102.08
2023-05-10T05:21:15.810Z,102.26
2023-05-10T05:22:16.202Z,104.27
2023-05-10T05:23:15.797Z,105.68
2023-05-10T05:24:15.811Z,103.21
2023-05-10T05:25:15.781Z,106.98
2023-05-10T05:26:15.776Z,113.15
2023-05-10T05:27:15.772Z,120.34
2023-05-10T05:28:15.758Z,134.35
2023-05-10T05:29:15.785Z,139.50
2023-05-10T05:30:15.911Z,140.19
2023-05-10T05:31:15.810Z,142.51
2023-05-10T05:32:15.771Z,154.95
2023-05-10T05:33:15.770Z,165.62
2023-05-10T05:34:15.834Z,166.36
2023-05-10T05:35:16.255Z,177.27
2023-05-10T05:36:15.911Z,179.12
2023-05-10T05:37:15.967Z,141.09
2023-05-10T05:38:16.006Z,112.42
2023-05-10T05:39:16.031Z,90.74
2023-05-10T05:40:16.032Z,80.18
2023-05-10T05:41:16.047Z,75.28
2023-05-10T05:42:16.084Z,68.37
2023-05-10T05:43:16.177Z,59.96
2023-05-10T05:44:16.204Z,57.93
2023-05-10T05:45:16.449Z,52.85
2023-05-10T05:46:16.328Z,56.51
2023-05-10T05:47:16.367Z,59.68
2023-05-10T05:48:16.371Z,71.22
2023-05-10T05:49:16.380Z,72.83
2023-05-10T05:50:16.380Z,69.03
2023-05-10T05:51:16.418Z,61.35
2023-05-10T05:52:16.438Z,50.87
2023-05-10T05:53:16.393Z,35.89
2023-05-10T05:54:16.369Z,25.00
2023-05-10T05:55:16.737Z,49.43
2023-05-10T05:56:16.428Z,37.54
2023-05-10T05:57:16.417Z,28.63
2023-05-10T05:58:16.426Z,25.00
2023-05-10T05:59:16.445Z,27.26
2023-05-10T06:00:16.468Z,24.50
2023-05-10T06:01:16.438Z,23.96
2023-05-10T06:02:16.480Z,20.36
2023-05-10T06:03:16.597Z,17.34
2023-05-10T06:04:16.572Z,15.65
2023-05-10T06:05:16.726Z,29.52
2023-05-10T06:06:16.424Z,29.92
2023-05-10T06:07:16.434Z,27.47
2023-05-10T06:08:16.419Z,31.48
2023-05-10T06:09:16.429Z,24.46
2023-05-10T06:10:16.431Z,36.36
2023-05-10T06:11:16.415Z,30.34
2023-05-10T06:12:16.467Z,34.15
2023-05-10T06:13:16.494Z,42.74
2023-05-10T06:14:16.434Z,61.20
2023-05-10T06:15:16.565Z,90.58
2023-05-10T06:16:16.419Z,103.14
2023-05-10T06:17:16.385Z,114.28
2023-05-10T06:18:16.371Z,125.34
2023-05-10T06:19:16.354Z,137.41
2023-05-10T06:20:16.378Z,154.58
2023-05-10T06:21:16.339Z,178.58
2023-05-10T06:22:16.349Z,190.68
2023-05-10T06:23:16.365Z,205.12
2023-05-10T06:24:16.356Z,216.57
2023-05-10T06:25:16.644Z,217.08
2023-05-10T06:26:16.322Z,218.47
2023-05-10T06:27:16.306Z,217.49
2023-05-10T06:28:16.294Z,221.00
2023-05-10T06:29:16.299Z,228.51
2023-05-10T06:30:16.262Z,247.13
2023-05-10T06:31:16.391Z,273.73
2023-05-10T06:32:16.239Z,250.70
2023-05-10T06:33:16.221Z,250.00
2023-05-10T06:34:16.209Z,250.00
2023-05-10T06:35:16.651Z,249.21
2023-05-10T06:36:16.172Z,248.51
2023-05-10T06:37:16.165Z,248.41
2023-05-10T06:38:16.159Z,250.00
2023-05-10T06:39:16.137Z,245.40
2023-05-10T06:40:16.122Z,249.63
2023-05-10T06:41:16.106Z,250.00
2023-05-10T06:42:16.095Z,249.94
2023-05-10T06:43:16.078Z,245.64
2023-05-10T06:44:16.046Z,248.85
2023-05-10T06:45:16.378Z,248.40
2023-05-10T06:46:16.099Z,241.87
2023-05-10T06:47:15.992Z,236.31
2023-05-10T06:48:16.075Z,231.81
2023-05-10T06:49:16.074Z,226.42
2023-05-10T06:50:16.101Z,214.86
2023-05-10T06:51:16.095Z,198.61
2023-05-10T06:52:16.226Z,195.24
2023-05-10T06:53:16.134Z,191.94
2023-05-10T06:54:16.140Z,188.67
2023-05-10T06:55:16.406Z,177.80
2023-05-10T06:56:16.232Z,173.08
2023-05-10T06:57:30.690Z,151.76
2023-05-10T06:58:17.172Z,132.24
2023-05-10T06:59:16.262Z,115.07
2023-05-10T07:00:16.536Z,95.53
2023-05-10T07:01:16.303Z,85.36
2023-05-10T07:02:16.248Z,77.15
2023-05-10T07:03:16.206Z,68.49
2023-05-10T07:04:16.177Z,64.72
2023-05-10T07:05:16.372Z,64.55
2023-05-10T07:06:29.209Z,51.55
2023-05-10T07:07:17.077Z,38.26
2023-05-10T07:08:16.075Z,27.62
2023-05-10T07:09:16.068Z,34.55
2023-05-10T07:10:16.104Z,26.40
2023-05-10T07:11:16.068Z,37.07
2023-05-10T07:12:16.270Z,21.72
2023-05-10T07:13:16.187Z,11.37
2023-05-10T07:14:16.063Z,14.16
2023-05-10T07:15:16.248Z,12.49
2023-05-10T07:16:16.101Z,23.04
2023-05-10T07:17:16.097Z,24.52
2023-05-10T07:18:16.079Z,25.12
2023-05-10T07:19:16.081Z,25.29
2023-05-10T07:20:16.071Z,25.00
2023-05-10T07:21:16.268Z,27.04
2023-05-10T07:22:16.080Z,25.02
2023-05-10T07:23:16.074Z,26.38
2023-05-10T07:24:16.102Z,30.63
2023-05-10T07:25:16.338Z,27.44
2023-05-10T07:26:16.171Z,28.24
2023-05-10T07:27:16.219Z,29.04
2023-05-10T07:28:16.263Z,28.87
2023-05-10T07:29:16.331Z,27.24
2023-05-10T07:30:16.448Z,36.65
2023-05-10T07:31:16.428Z,47.41
2023-05-10T07:32:16.549Z,48.53
2023-05-10T07:33:16.513Z,48.04
2023-05-10T07:34:16.671Z,53.33
2023-05-10T07:35:16.835Z,54.33
2023-05-10T07:36:16.735Z,60.47
2023-05-10T07:37:16.774Z,64.58
2023-05-10T07:38:16.775Z,76.62
2023-05-10T07:39:26.685Z,83.97
2023-05-10T07:40:17.882Z,84.34
2023-05-10T07:41:16.762Z,85.60
2023-05-10T07:42:16.742Z,89.87
2023-05-10T07:43:16.740Z,95.57
2023-05-10T07:44:16.747Z,101.03
2023-05-10T07:45:17.089Z,105.22
2023-05-10T07:46:16.790Z,105.42
2023-05-10T07:47:16.723Z,102.91
2023-05-10T07:48:16.743Z,98.60
2023-05-10T07:49:16.710Z,91.16
2023-05-10T07:50:16.731Z,90.11
2023-05-10T07:51:16.754Z,86.04
2023-05-10T07:52:16.720Z,80.87
2023-05-10T07:53:16.876Z,72.16
2023-05-10T07:54:16.704Z,71.38
2023-05-10T07:55:16.872Z,65.63
2023-05-10T07:56:16.704Z,63.70
2023-05-10T07:57:16.657Z,66.36
2023-05-10T07:58:16.651Z,63.86
2023-05-10T07:59:16.654Z,61.59
2023-05-10T08:00:16.638Z,64.92
2023-05-10T08:01:16.744Z,61.21
2023-05-10T08:02:16.716Z,63.76
2023-05-10T08:03:16.741Z,63.87
2023-05-10T08:04:16.668Z,59.53
2023-05-10T08:05:17.060Z,62.11
2023-05-10T08:06:16.584Z,61.87
2023-05-10T08:07:16.582Z,64.22
2023-05-10T08:08:16.581Z,62.60
2023-05-10T08:09:16.558Z,61.81
2023-05-10T08:10:16.592Z,57.77
2023-05-10T08:11:16.511Z,55.53
2023-05-10T08:12:16.516Z,60.18
2023-05-10T08:13:16.538Z,62.62
2023-05-10T08:14:16.493Z,63.26
2023-05-10T08:15:16.837Z,64.37
2023-05-10T08:16:16.513Z,63.08
2023-05-10T08:17:17.340Z,62.72
2023-05-10T08:18:16.481Z,64.38
2023-05-10T08:19:16.429Z,63.89
2023-05-10T08:20:16.496Z,66.40
2023-05-10T08:21:16.500Z,67.54
2023-05-10T08:22:16.371Z,69.34
2023-05-10T08:23:16.442Z,70.30
2023-05-10T08:24:16.539Z,66.54
2023-05-10T08:25:16.685Z,65.33
2023-05-10T08:26:16.484Z,62.18
2023-05-10T08:27:16.457Z,57.72
2023-05-10T08:28:16.491Z,55.51
2023-05-10T08:29:16.531Z,50.26
2023-05-10T08:30:16.593Z,48.90
2023-05-10T08:31:16.674Z,51.40
2023-05-10T08:32:16.616Z,66.77
2023-05-10T08:33:16.636Z,86.30
2023-05-10T08:34:16.617Z,211.43
2023-05-10T08:35:17.059Z,249.94
2023-05-10T08:36:16.688Z,266.07
2023-05-10T08:37:16.707Z,266.46
2023-05-10T08:38:16.691Z,268.86
2023-05-10T08:39:29.411Z,249.63
2023-05-10T08:40:17.706Z,245.05
2023-05-10T08:41:16.656Z,240.89
2023-05-10T08:42:16.662Z,229.40
2023-05-10T08:43:16.644Z,222.34
2023-05-10T08:44:16.652Z,222.38
2023-05-10T08:45:16.910Z,225.01
2023-05-10T08:46:16.662Z,211.03
2023-05-10T08:47:16.678Z,213.90
2023-05-10T08:48:16.650Z,216.20
2023-05-10T08:49:16.567Z,220.10
2023-05-10T08:50:16.585Z,220.37
2023-05-10T08:51:16.566Z,222.75
2023-05-10T08:52:16.560Z,230.71
2023-05-10T08:53:16.590Z,214.61
2023-05-10T08:54:16.548Z,202.26
2023-05-10T08:55:17.128Z,184.09
2023-05-10T08:56:16.544Z,176.77
2023-05-10T08:57:16.535Z,154.16
2023-05-10T08:58:16.503Z,145.02
2023-05-10T08:59:16.510Z,134.01
2023-05-10T09:00:16.763Z,126.44
2023-05-10T09:01:16.491Z,118.47
2023-05-10T09:02:18.693Z,108.67
2023-05-10T09:03:16.542Z,91.72
2023-05-10T09:04:16.539Z,84.33
2023-05-10T09:05:16.694Z,85.40
2023-05-10T09:06:16.459Z,90.05
2023-05-10T09:07:16.465Z,84.95
2023-05-10T09:08:16.478Z,81.91
2023-05-10T09:09:16.424Z,78.55
2023-05-10T09:10:16.418Z,84.55
2023-05-10T09:11:16.381Z,82.90
2023-05-10T09:12:16.359Z,73.39
2023-05-10T09:13:16.417Z,71.88
2023-05-10T09:14:16.337Z,66.71
2023-05-10T09:15:16.563Z,72.43
2023-05-10T09:16:22.005Z,70.18
2023-05-10T09:17:17.441Z,70.40
2023-05-10T09:18:16.367Z,70.98
2023-05-10T09:19:16.298Z,72.03
2023-05-10T09:20:16.270Z,70.56
2023-05-10T09:21:16.258Z,70.36
2023-05-10T09:22:16.249Z,67.20
2023-05-10T09:23:16.262Z,63.87
2023-05-10T09:24:16.217Z,72.73
2023-05-10T09:25:16.614Z,73.24
2023-05-10T09:26:16.231Z,74.48
2023-05-10T09:27:16.206Z,71.27
2023-05-10T09:28:17.000Z,59.38
2023-05-10T09:29:17.499Z,59.98
2023-05-10T09:30:16.259Z,61.43
2023-05-10T09:31:16.245Z,59.58
2023-05-10T09:32:16.151Z,61.12
2023-05-10T09:33:16.145Z,57.52
2023-05-10T09:34:16.154Z,54.67
2023-05-10T09:35:16.350Z,54.73
2023-05-10T09:36:16.142Z,51.83
2023-05-10T09:37:16.151Z,48.60
2023-05-10T09:38:16.164Z,40.03
2023-05-10T09:39:16.195Z,40.04
2023-05-10T09:40:16.265Z,26.44
2023-05-10T09:41:16.302Z,31.36
2023-05-10T09:42:16.343Z,44.24
2023-05-10T09:43:16.383Z,43.64
2023-05-10T09:44:16.425Z,38.96
2023-05-10T09:45:16.582Z,29.19
2023-05-10T09:46:16.506Z,20.56
2023-05-10T09:47:16.467Z,21.44
2023-05-10T09:48:16.421Z,12.46
2023-05-10T09:49:16.420Z,13.06
2023-05-10T09:50:16.449Z,26.24
2023-05-10T09:51:16.439Z,33.27
2023-05-10T09:52:16.443Z,31.93
2023-05-10T09:53:16.450Z,32.22
2023-05-10T09:54:16.467Z,29.85
2023-05-10T09:55:16.703Z,28.67
2023-05-10T09:56:16.471Z,32.43
2023-05-10T09:57:16.471Z,36.97
2023-05-10T09:58:16.514Z,43.00
2023-05-10T09:59:16.669Z,40.05
2023-05-10T10:00:16.662Z,31.14
2023-05-10T10:01:16.700Z,28.81
2023-05-10T10:02:16.626Z,12.40
2023-05-10T10:03:16.620Z,10.38
2023-05-10T10:04:16.619Z,11.91
2023-05-10T10:05:16.755Z,19.83
2023-05-10T10:06:29.151Z,28.29
2023-05-10T10:07:17.569Z,28.60
2023-05-10T10:08:16.591Z,28.74
2023-05-10T10:09:16.557Z,16.82
2023-05-10T10:10:16.618Z,27.97
2023-05-10T10:11:16.591Z,39.75
2023-05-10T10:12:16.569Z,56.33
2023-05-10T10:13:16.559Z,68.74
2023-05-10T10:14:16.541Z,79.34
2023-05-10T10:15:16.918Z,86.60
2023-05-10T10:16:16.583Z,95.80
2023-05-10T10:17:16.536Z,102.77
2023-05-10T10:18:16.781Z,108.26
2023-05-10T10:19:16.582Z,114.27
2023-05-10T10:20:16.819Z,121.41
2023-05-10T10:21:16.631Z,128.95
2023-05-10T10:22:16.638Z,134.65
2023-05-10T10:23:17.599Z,138.01
2023-05-10T10:24:16.604Z,143.44
2023-05-10T10:25:16.921Z,147.85
2023-05-10T10:26:16.594Z,153.92
2023-05-10T10:27:16.589Z,157.83
2023-05-10T10:28:16.582Z,163.22
2023-05-10T10:29:16.553Z,153.33
2023-05-10T10:30:16.642Z,129.57
2023-05-10T10:31:16.583Z,99.68
2023-05-10T10:32:16.557Z,87.72
2023-05-10T10:33:27.391Z,69.82
2023-05-10T10:34:17.540Z,54.90
2023-05-10T10:35:16.727Z,41.90
2023-05-10T10:36:16.544Z,39.99
2023-05-10T10:37:16.531Z,25.77
2023-05-10T10:38:16.503Z,22.61
2023-05-10T10:39:16.504Z,24.51
2023-05-10T10:40:16.526Z,25.00
2023-05-10T10:41:16.521Z,28.87
2023-05-10T10:42:16.501Z,29.06
2023-05-10T10:43:16.505Z,29.43
2023-05-10T10:44:16.478Z,32.35
2023-05-10T10:45:16.704Z,41.53
2023-05-10T10:46:16.549Z,60.35
2023-05-10T10:47:16.490Z,92.65
2023-05-10T10:48:16.548Z,104.55
2023-05-10T10:49:16.495Z,121.22
2023-05-10T10:50:16.553Z,132.08
2023-05-10T10:51:16.519Z,140.17
2023-05-10T10:52:16.458Z,149.34
2023-05-10T10:53:16.502Z,140.38
2023-05-10T10:54:16.439Z,75.96
2023-05-10T10:55:16.640Z,50.62
2023-05-10T10:56:16.543Z,39.42
2023-05-10T10:57:16.635Z,22.49
2023-05-10T10:58:16.461Z,22.75
2023-05-10T10:59:16.474Z,25.00
2023-05-10T11:00:16.472Z,25.00
2023-05-10T11:01:16.633Z,22.60
2023-05-10T11:02:16.588Z,25.00
2023-05-10T11:03:16.620Z,26.33
2023-05-10T11:04:16.653Z,28.25
2023-05-10T11:05:16.845Z,31.50
2023-05-10T11:06:16.675Z,34.86
2023-05-10T11:07:16.667Z,34.14
2023-05-10T11:08:16.724Z,27.28
2023-05-10T11:09:16.728Z,28.12
2023-05-10T11:10:16.770Z,26.66
2023-05-10T11:11:16.916Z,26.44
2023-05-10T11:12:16.815Z,27.26
2023-05-10T11:13:16.857Z,32.46
2023-05-10T11:14:16.866Z,55.01
2023-05-10T11:15:17.203Z,66.10
2023-05-10T11:16:16.974Z,74.04
2023-05-10T11:17:17.056Z,79.81
2023-05-10T11:18:17.092Z,83.64
2023-05-10T11:19:17.037Z,84.04
2023-05-10T11:20:17.359Z,86.29
2023-05-10T11:21:17.072Z,93.35
2023-05-10T11:22:17.051Z,103.36
2023-05-10T11:23:17.096Z,103.22
2023-05-10T11:24:17.072Z,102.67
2023-05-10T11:25:17.066Z,113.33
2023-05-10T11:26:17.226Z,120.10
2023-05-10T11:27:17.051Z,126.14
2023-05-10T11:28:17.052Z,129.61
2023-05-10T11:29:17.174Z,136.27
2023-05-10T11:30:17.363Z,139.42
2023-05-10T11:31:17.239Z,146.24
2023-05-10T11:32:17.224Z,147.89
2023-05-10T11:33:17.201Z,155.62
2023-05-10T11:34:17.236Z,157.12
2023-05-10T11:35:17.262Z,159.47
2023-05-10T11:36:17.312Z,160.17
2023-05-10T11:37:17.317Z,162.75
2023-05-10T11:38:17.343Z,166.26
2023-05-10T11:39:17.369Z,169.46
2023-05-10T11:40:17.537Z,170.54
2023-05-10T11:41:17.466Z,175.74
2023-05-10T11:42:17.449Z,175.76
2023-05-10T11:43:17.424Z,175.97
2023-05-10T11:44:17.407Z,176.62
2023-05-10T11:45:17.418Z,179.80
2023-05-10T11:46:17.487Z,181.75
2023-05-10T11:47:17.381Z,184.75
2023-05-10T11:48:17.398Z,186.20
2023-05-10T11:49:17.371Z,189.90
2023-05-10T11:50:17.531Z,191.74
2023-05-10T11:51:17.372Z,194.99
2023-05-10T11:52:17.362Z,197.10
2023-05-10T11:53:17.350Z,197.31
2023-05-10T11:54:17.329Z,200.60
2023-05-10T11:55:17.345Z,202.69
2023-05-10T11:56:17.317Z,205.04
2023-05-10T11:57:17.305Z,205.49
2023-05-10T11:58:17.294Z,201.23
2023-05-10T11:59:17.288Z,166.47
2023-05-10T12:00:17.635Z,134.66
2023-05-10T12:01:17.283Z,122.44
2023-05-10T12:02:17.312Z,104.87
2023-05-10T12:03:17.373Z,91.54
2023-05-10T12:04:17.572Z,77.98
2023-05-10T12:05:17.265Z,71.10
2023-05-10T12:06:17.267Z,60.58
2023-05-10T12:07:17.267Z,51.45
2023-05-10T12:08:17.281Z,44.72
2023-05-10T12:09:19.245Z,36.18
2023-05-10T12:10:18.488Z,29.64
2023-05-10T12:11:17.272Z,24.76
2023-05-10T12:12:17.354Z,22.33
2023-05-10T12:13:17.272Z,21.40
2023-05-10T12:14:17.293Z,22.73
2023-05-10T12:15:17.288Z,25.02
2023-05-10T12:16:17.341Z,24.66
2023-05-10T12:17:17.309Z,25.00
2023-05-10T12:18:17.457Z,25.31
2023-05-10T12:19:17.392Z,25.63
2023-05-10T12:20:17.827Z,25.19
2023-05-10T12:21:17.513Z,25.00
2023-05-10T12:22:17.550Z,26.93
2023-05-10T12:23:17.540Z,28.00
2023-05-10T12:24:17.559Z,27.00
2023-05-10T12:25:17.579Z,25.48
2023-05-10T12:26:17.586Z,26.16
2023-05-10T12:27:17.576Z,26.17
2023-05-10T12:28:17.605Z,25.30
2023-05-10T12:29:17.646Z,24.81
2023-05-10T12:30:17.833Z,25.00
2023-05-10T12:31:17.760Z,26.91
2023-05-10T12:32:17.807Z,28.77
2023-05-10T12:33:17.707Z,31.49
2023-05-10T12:34:17.777Z,43.37
2023-05-10T12:35:17.754Z,76.97
2023-05-10T12:36:17.810Z,95.44
2023-05-10T12:37:17.826Z,95.95
2023-05-10T12:38:17.772Z,99.11
2023-05-10T12:39:17.756Z,107.99
2023-05-10T12:40:18.021Z,123.47
2023-05-10T12:41:17.849Z,149.82
2023-05-10T12:42:17.803Z,161.76
2023-05-10T12:43:17.760Z,173.86
2023-05-10T12:44:17.752Z,178.96
2023-05-10T12:45:17.761Z,184.71
2023-05-10T12:46:17.871Z,189.96
2023-05-10T12:47:17.783Z,194.65